sensor_id;sensor_type;location;lat;lon;timestamp;P1;durP1;ratioP1;P2;durP2;ratioP2
4313;SDS011;2170;48.794;9.182;2023-05-23T00:00:11;31.93;;;26.80;;
4313;SDS011;2170;48.794;9.182;2023-05-23T00:02:41;37.63;;;28.70;;
4313;SDS011;2170;48.794;9.182;2023-05-23T00:05:09;33.13;;;28.83;;
4313;SDS011;2170;48.794;9.182;2023-05-23T00:07:37;37.07;;;30.70;;
4313;SDS011;2170;48.794;9.182;2023-05-23T00:10:10;41.07;;;33.00;;
4313;SDS011;2170;48.794;9.182;2023-05-23T00:12:43;41.57;;;32.13;;
4313;SDS011;2170;48.794;9.182;2023-05-23T00:15:22;41.20;;;33.80;;
4313;SDS011;2170;48.794;9.182;2023-05-23T00:17:55;41.83;;;32.83;;
4313;SDS011;2170;48.794;9.182;2023-05-23T00:20:26;41.43;;;34.27;;
4313;SDS011;2170;48.794;9.182;2023-05-23T00:23:08;36.97;;;32.93;;
4313;SDS011;2170;48.794;9.182;2023-05-23T00:26:01;46.00;;;35.27;;
4313;SDS011;2170;48.794;9.182;2023-05-23T00:28:40;40.63;;;35.70;;
4313;SDS011;2170;48.794;9.182;2023-05-23T00:31:15;46.23;;;35.97;;
4313;SDS011;2170;48.794;9.182;2023-05-23T00:33:52;49.63;;;38.37;;
4313;SDS011;2170;48.794;9.182;2023-05-23T00:36:48;47.17;;;36.37;;
4313;SDS011;2170;48.794;9.182;2023-05-23T00:39:23;41.13;;;35.73;;
4313;SDS011;2170;48.794;9.182;2023-05-23T00:42:02;45.57;;;36.80;;
4313;SDS011;2170;48.794;9.182;2023-05-23T00:44:38;51.83;;;38.03;;
4313;SDS011;2170;48.794;9.182;2023-05-23T00:47:18;45.60;;;35.83;;
4313;SDS011;2170;48.794;9.182;2023-05-23T00:49:50;46.47;;;36.90;;
4313;SDS011;2170;48.794;9.182;2023-05-23T00:52:30;51.00;;;38.17;;
4313;SDS011;2170;48.794;9.182;2023-05-23T00:55:24;49.33;;;37.53;;
4313;SDS011;2170;48.794;9.182;2023-05-23T00:58:02;56.57;;;41.27;;
4313;SDS011;2170;48.794;9.182;2023-05-23T01:00:33;52.93;;;39.87;;
4313;SDS011;2170;48.794;9.182;2023-05-23T01:03:18;47.50;;;38.60;;
4313;SDS011;2170;48.794;9.182;2023-05-23T01:05:47;52.77;;;39.83;;
4313;SDS011;2170;48.794;9.182;2023-05-23T01:08:16;56.00;;;42.40;;
4313;SDS011;2170;48.794;9.182;2023-05-23T01:10:53;55.00;;;39.73;;
4313;SDS011;2170;48.794;9.182;2023-05-23T01:13:33;53.90;;;39.70;;
4313;SDS011;2170;48.794;9.182;2023-05-23T01:16:09;57.50;;;42.50;;
4313;SDS011;2170;48.794;9.182;2023-05-23T01:18:44;52.20;;;39.20;;
4313;SDS011;2170;48.794;9.182;2023-05-23T01:21:28;56.27;;;42.70;;
4313;SDS011;2170;48.794;9.182;2023-05-23T01:24:06;66.43;;;43.90;;
4313;SDS011;2170;48.794;9.182;2023-05-23T01:26:50;61.77;;;44.40;;
4313;SDS011;2170;48.794;9.182;2023-05-23T01:29:28;61.93;;;44.80;;
4313;SDS011;2170;48.794;9.182;2023-05-23T01:32:09;57.20;;;43.70;;
4313;SDS011;2170;48.794;9.182;2023-05-23T01:35:05;59.80;;;44.40;;
4313;SDS011;2170;48.794;9.182;2023-05-23T01:37:44;59.80;;;44.73;;
4313;SDS011;2170;48.794;9.182;2023-05-23T01:40:36;59.90;;;45.83;;
4313;SDS011;2170;48.794;9.182;2023-05-23T01:43:21;58.97;;;45.20;;
4313;SDS011;2170;48.794;9.182;2023-05-23T01:46:08;59.03;;;46.07;;
4313;SDS011;2170;48.794;9.182;2023-05-23T01:48:55;61.63;;;46.37;;
4313;SDS011;2170;48.794;9.182;2023-05-23T01:51:28;67.47;;;49.20;;
4313;SDS011;2170;48.794;9.182;2023-05-23T01:56:57;63.30;;;49.10;;
4313;SDS011;2170;48.794;9.182;2023-05-23T01:59:52;65.93;;;51.40;;
4313;SDS011;2170;48.794;9.182;2023-05-23T02:02:50;78.00;;;53.77;;
4313;SDS011;2170;48.794;9.182;2023-05-23T02:05:22;66.33;;;52.20;;
4313;SDS011;2170;48.794;9.182;2023-05-23T02:11:01;71.27;;;52.67;;
4313;SDS011;2170;48.794;9.182;2023-05-23T02:13:31;74.37;;;52.63;;
4313;SDS011;2170;48.794;9.182;2023-05-23T02:16:09;83.53;;;54.67;;
4313;SDS011;2170;48.794;9.182;2023-05-23T02:18:47;79.00;;;57.50;;
4313;SDS011;2170;48.794;9.182;2023-05-23T02:21:17;74.23;;;56.77;;
4313;SDS011;2170;48.794;9.182;2023-05-23T02:23:57;68.63;;;54.20;;
4313;SDS011;2170;48.794;9.182;2023-05-23T02:26:38;75.93;;;56.17;;
4313;SDS011;2170;48.794;9.182;2023-05-23T02:29:11;75.60;;;55.97;;
4313;SDS011;2170;48.794;9.182;2023-05-23T02:31:44;71.83;;;54.37;;
4313;SDS011;2170;48.794;9.182;2023-05-23T02:34:31;76.53;;;57.30;;
4313;SDS011;2170;48.794;9.182;2023-05-23T02:40:30;75.27;;;56.73;;
4313;SDS011;2170;48.794;9.182;2023-05-23T02:43:19;75.27;;;56.87;;
4313;SDS011;2170;48.794;9.182;2023-05-23T02:46:11;74.63;;;59.13;;
4313;SDS011;2170;48.794;9.182;2023-05-23T02:48:50;78.87;;;58.00;;
4313;SDS011;2170;48.794;9.182;2023-05-23T02:51:50;74.13;;;55.40;;
4313;SDS011;2170;48.794;9.182;2023-05-23T02:54:29;76.43;;;57.20;;
4313;SDS011;2170;48.794;9.182;2023-05-23T02:57:16;75.33;;;56.73;;
4313;SDS011;2170;48.794;9.182;2023-05-23T02:59:57;66.83;;;55.13;;
4313;SDS011;2170;48.794;9.182;2023-05-23T03:05:30;69.77;;;55.53;;
4313;SDS011;2170;48.794;9.182;2023-05-23T03:08:33;70.97;;;55.03;;
4313;SDS011;2170;48.794;9.182;2023-05-23T03:11:16;76.50;;;56.17;;
4313;SDS011;2170;48.794;9.182;2023-05-23T03:14:11;70.17;;;55.67;;
4313;SDS011;2170;48.794;9.182;2023-05-23T03:16:58;78.30;;;55.30;;
4313;SDS011;2170;48.794;9.182;2023-05-23T03:20:08;74.47;;;56.87;;
4313;SDS011;2170;48.794;9.182;2023-05-23T03:22:59;68.10;;;53.77;;
4313;SDS011;2170;48.794;9.182;2023-05-23T03:25:37;71.47;;;53.67;;
4313;SDS011;2170;48.794;9.182;2023-05-23T03:28:29;67.47;;;53.13;;
4313;SDS011;2170;48.794;9.182;2023-05-23T03:31:09;64.50;;;53.40;;
4313;SDS011;2170;48.794;9.182;2023-05-23T03:33:50;68.70;;;54.03;;
4313;SDS011;2170;48.794;9.182;2023-05-23T03:36:44;71.90;;;54.90;;
4313;SDS011;2170;48.794;9.182;2023-05-23T03:39:17;65.07;;;52.70;;
4313;SDS011;2170;48.794;9.182;2023-05-23T03:41:55;66.60;;;54.00;;
4313;SDS011;2170;48.794;9.182;2023-05-23T03:47:10;64.13;;;52.60;;
4313;SDS011;2170;48.794;9.182;2023-05-23T03:49:44;66.47;;;53.07;;
4313;SDS011;2170;48.794;9.182;2023-05-23T03:52:22;64.90;;;52.33;;
4313;SDS011;2170;48.794;9.182;2023-05-23T03:55:14;61.73;;;52.30;;
4313;SDS011;2170;48.794;9.182;2023-05-23T03:57:48;64.70;;;52.90;;
4313;SDS011;2170;48.794;9.182;2023-05-23T04:00:32;63.10;;;50.90;;
4313;SDS011;2170;48.794;9.182;2023-05-23T04:03:03;58.73;;;49.47;;
4313;SDS011;2170;48.794;9.182;2023-05-23T04:05:32;56.63;;;50.00;;
4313;SDS011;2170;48.794;9.182;2023-05-23T04:08:10;56.50;;;49.03;;
4313;SDS011;2170;48.794;9.182;2023-05-23T04:10:45;60.40;;;52.27;;
4313;SDS011;2170;48.794;9.182;2023-05-23T04:13:21;65.13;;;52.40;;
4313;SDS011;2170;48.794;9.182;2023-05-23T04:15:55;64.13;;;50.70;;
4313;SDS011;2170;48.794;9.182;2023-05-23T04:18:32;64.60;;;50.87;;
4313;SDS011;2170;48.794;9.182;2023-05-23T04:21:08;56.33;;;50.13;;
4313;SDS011;2170;48.794;9.182;2023-05-23T04:24:05;57.93;;;49.00;;
4313;SDS011;2170;48.794;9.182;2023-05-23T04:26:47;58.50;;;51.20;;
4313;SDS011;2170;48.794;9.182;2023-05-23T04:29:25;61.50;;;50.37;;
4313;SDS011;2170;48.794;9.182;2023-05-23T04:32:12;55.90;;;48.53;;
4313;SDS011;2170;48.794;9.182;2023-05-23T04:34:49;58.43;;;48.23;;
4313;SDS011;2170;48.794;9.182;2023-05-23T04:37:46;57.50;;;50.97;;
4313;SDS011;2170;48.794;9.182;2023-05-23T04:40:31;61.70;;;48.07;;
4313;SDS011;2170;48.794;9.182;2023-05-23T04:43:01;58.67;;;47.60;;
4313;SDS011;2170;48.794;9.182;2023-05-23T04:45:39;53.97;;;48.07;;
4313;SDS011;2170;48.794;9.182;2023-05-23T04:48:08;52.97;;;46.87;;
4313;SDS011;2170;48.794;9.182;2023-05-23T04:50:55;56.03;;;47.90;;
4313;SDS011;2170;48.794;9.182;2023-05-23T04:53:36;53.53;;;47.70;;
4313;SDS011;2170;48.794;9.182;2023-05-23T04:56:14;57.90;;;46.80;;
4313;SDS011;2170;48.794;9.182;2023-05-23T04:58:48;57.00;;;47.70;;
4313;SDS011;2170;48.794;9.182;2023-05-23T05:01:22;55.70;;;49.60;;
4313;SDS011;2170;48.794;9.182;2023-05-23T05:03:51;53.27;;;47.50;;
4313;SDS011;2170;48.794;9.182;2023-05-23T05:06:20;53.60;;;46.47;;
4313;SDS011;2170;48.794;9.182;2023-05-23T05:08:49;57.57;;;50.20;;
4313;SDS011;2170;48.794;9.182;2023-05-23T05:11:17;52.73;;;45.30;;
4313;SDS011;2170;48.794;9.182;2023-05-23T05:13:46;53.17;;;47.23;;
4313;SDS011;2170;48.794;9.182;2023-05-23T05:16:15;58.67;;;49.40;;
4313;SDS011;2170;48.794;9.182;2023-05-23T05:18:46;56.70;;;48.10;;
4313;SDS011;2170;48.794;9.182;2023-05-23T05:21:14;54.83;;;48.60;;
4313;SDS011;2170;48.794;9.182;2023-05-23T05:23:43;52.87;;;47.20;;
4313;SDS011;2170;48.794;9.182;2023-05-23T05:26:13;51.60;;;44.43;;
4313;SDS011;2170;48.794;9.182;2023-05-23T05:28:50;52.50;;;45.67;;
4313;SDS011;2170;48.794;9.182;2023-05-23T05:31:22;51.77;;;46.33;;
4313;SDS011;2170;48.794;9.182;2023-05-23T05:34:01;50.60;;;44.73;;
4313;SDS011;2170;48.794;9.182;2023-05-23T05:36:31;51.03;;;45.50;;
4313;SDS011;2170;48.794;9.182;2023-05-23T05:39:04;54.17;;;46.97;;
4313;SDS011;2170;48.794;9.182;2023-05-23T05:41:39;51.97;;;46.40;;
4313;SDS011;2170;48.794;9.182;2023-05-23T05:44:26;50.67;;;45.03;;
4313;SDS011;2170;48.794;9.182;2023-05-23T05:47:01;52.00;;;46.53;;
4313;SDS011;2170;48.794;9.182;2023-05-23T05:49:41;53.13;;;47.47;;
4313;SDS011;2170;48.794;9.182;2023-05-23T05:52:10;53.20;;;45.67;;
4313;SDS011;2170;48.794;9.182;2023-05-23T05:54:47;56.30;;;47.50;;
4313;SDS011;2170;48.794;9.182;2023-05-23T05:57:16;53.13;;;47.37;;
4313;SDS011;2170;48.794;9.182;2023-05-23T05:59:53;51.53;;;45.30;;
4313;SDS011;2170;48.794;9.182;2023-05-23T06:02:21;51.13;;;45.63;;
4313;SDS011;2170;48.794;9.182;2023-05-23T06:04:57;49.60;;;44.27;;
4313;SDS011;2170;48.794;9.182;2023-05-23T06:07:25;50.07;;;44.77;;
4313;SDS011;2170;48.794;9.182;2023-05-23T06:09:55;50.83;;;45.63;;
4313;SDS011;2170;48.794;9.182;2023-05-23T06:12:25;50.83;;;45.63;;
4313;SDS011;2170;48.794;9.182;2023-05-23T06:15:03;49.83;;;44.73;;
4313;SDS011;2170;48.794;9.182;2023-05-23T06:17:35;50.27;;;45.07;;
4313;SDS011;2170;48.794;9.182;2023-05-23T06:20:07;51.60;;;46.30;;
4313;SDS011;2170;48.794;9.182;2023-05-23T06:22:36;52.27;;;46.80;;
4313;SDS011;2170;48.794;9.182;2023-05-23T06:25:09;52.10;;;46.80;;
4313;SDS011;2170;48.794;9.182;2023-05-23T06:27:37;52.60;;;47.20;;
4313;SDS011;2170;48.794;9.182;2023-05-23T06:30:13;51.03;;;45.70;;
4313;SDS011;2170;48.794;9.182;2023-05-23T06:32:45;52.60;;;47.37;;
4313;SDS011;2170;48.794;9.182;2023-05-23T06:35:31;51.07;;;45.87;;
4313;SDS011;2170;48.794;9.182;2023-05-23T06:38:12;50.67;;;45.47;;
4313;SDS011;2170;48.794;9.182;2023-05-23T06:40:59;50.33;;;45.13;;
4313;SDS011;2170;48.794;9.182;2023-05-23T06:43:44;53.03;;;47.30;;
4313;SDS011;2170;48.794;9.182;2023-05-23T06:46:23;50.10;;;44.93;;
4313;SDS011;2170;48.794;9.182;2023-05-23T06:48:55;50.93;;;45.87;;
4313;SDS011;2170;48.794;9.182;2023-05-23T06:51:32;50.07;;;44.93;;
4313;SDS011;2170;48.794;9.182;2023-05-23T06:54:04;49.57;;;44.40;;
4313;SDS011;2170;48.794;9.182;2023-05-23T06:56:35;50.13;;;44.93;;
4313;SDS011;2170;48.794;9.182;2023-05-23T06:59:08;50.27;;;45.03;;
4313;SDS011;2170;48.794;9.182;2023-05-23T07:01:38;51.47;;;45.90;;
4313;SDS011;2170;48.794;9.182;2023-05-23T07:04:10;52.07;;;44.83;;
4313;SDS011;2170;48.794;9.182;2023-05-23T07:06:44;49.70;;;44.30;;
4313;SDS011;2170;48.794;9.182;2023-05-23T07:09:15;49.77;;;44.57;;
4313;SDS011;2170;48.794;9.182;2023-05-23T07:12:03;48.23;;;43.10;;
4313;SDS011;2170;48.794;9.182;2023-05-23T07:14:37;48.87;;;43.60;;
4313;SDS011;2170;48.794;9.182;2023-05-23T07:17:06;46.07;;;39.70;;
4313;SDS011;2170;48.794;9.182;2023-05-23T07:19:37;44.80;;;40.23;;
4313;SDS011;2170;48.794;9.182;2023-05-23T07:22:08;44.33;;;39.80;;
4313;SDS011;2170;48.794;9.182;2023-05-23T07:24:43;41.37;;;37.13;;
4313;SDS011;2170;48.794;9.182;2023-05-23T07:27:31;39.73;;;35.90;;
4313;SDS011;2170;48.794;9.182;2023-05-23T07:32:57;37.07;;;33.30;;
4313;SDS011;2170;48.794;9.182;2023-05-23T07:35:26;34.83;;;31.53;;
4313;SDS011;2170;48.794;9.182;2023-05-23T07:38:05;36.37;;;32.90;;
4313;SDS011;2170;48.794;9.182;2023-05-23T07:41:00;33.33;;;29.90;;
4313;SDS011;2170;48.794;9.182;2023-05-23T07:43:29;37.20;;;33.53;;
4313;SDS011;2170;48.794;9.182;2023-05-23T07:46:01;40.53;;;36.33;;
4313;SDS011;2170;48.794;9.182;2023-05-23T07:48:34;43.30;;;38.90;;
4313;SDS011;2170;48.794;9.182;2023-05-23T07:51:05;43.13;;;38.83;;
4313;SDS011;2170;48.794;9.182;2023-05-23T07:53:37;42.90;;;38.70;;
4313;SDS011;2170;48.794;9.182;2023-05-23T07:56:13;42.67;;;38.40;;
4313;SDS011;2170;48.794;9.182;2023-05-23T07:58:46;37.23;;;33.60;;
4313;SDS011;2170;48.794;9.182;2023-05-23T08:04:16;36.00;;;32.30;;
4313;SDS011;2170;48.794;9.182;2023-05-23T08:06:44;32.53;;;29.30;;
4313;SDS011;2170;48.794;9.182;2023-05-23T08:09:18;30.93;;;27.70;;
4313;SDS011;2170;48.794;9.182;2023-05-23T08:11:46;30.13;;;27.13;;
4313;SDS011;2170;48.794;9.182;2023-05-23T08:14:28;30.17;;;27.37;;
4313;SDS011;2170;48.794;9.182;2023-05-23T08:17:02;30.33;;;27.37;;
4313;SDS011;2170;48.794;9.182;2023-05-23T08:19:32;27.87;;;25.27;;
4313;SDS011;2170;48.794;9.182;2023-05-23T08:22:07;31.10;;;28.03;;
4313;SDS011;2170;48.794;9.182;2023-05-23T08:24:49;31.27;;;28.03;;
4313;SDS011;2170;48.794;9.182;2023-05-23T08:27:24;29.30;;;26.30;;
4313;SDS011;2170;48.794;9.182;2023-05-23T08:29:53;28.63;;;25.93;;
4313;SDS011;2170;48.794;9.182;2023-05-23T08:33:06;29.73;;;27.03;;
4313;SDS011;2170;48.794;9.182;2023-05-23T08:38:06;28.93;;;26.13;;
4313;SDS011;2170;48.794;9.182;2023-05-23T08:46:45;28.23;;;25.70;;
4313;SDS011;2170;48.794;9.182;2023-05-23T08:49:16;26.00;;;23.40;;
4313;SDS011;2170;48.794;9.182;2023-05-23T08:51:53;26.60;;;24.00;;
4313;SDS011;2170;48.794;9.182;2023-05-23T08:54:36;26.13;;;23.47;;
4313;SDS011;2170;48.794;9.182;2023-05-23T08:57:23;25.23;;;22.83;;
4313;SDS011;2170;48.794;9.182;2023-05-23T08:59:53;25.83;;;23.47;;
4313;SDS011;2170;48.794;9.182;2023-05-23T09:02:25;25.83;;;23.63;;
4313;SDS011;2170;48.794;9.182;2023-05-23T09:05:07;25.80;;;23.43;;
4313;SDS011;2170;48.794;9.182;2023-05-23T09:07:52;27.27;;;24.77;;
4313;SDS011;2170;48.794;9.182;2023-05-23T09:10:24;27.93;;;25.33;;
4313;SDS011;2170;48.794;9.182;2023-05-23T09:13:10;27.90;;;25.40;;
4313;SDS011;2170;48.794;9.182;2023-05-23T09:16:00;26.27;;;23.87;;
4313;SDS011;2170;48.794;9.182;2023-05-23T09:18:35;24.33;;;22.00;;
4313;SDS011;2170;48.794;9.182;2023-05-23T09:21:04;24.83;;;22.63;;
4313;SDS011;2170;48.794;9.182;2023-05-23T09:23:33;25.47;;;23.07;;
4313;SDS011;2170;48.794;9.182;2023-05-23T09:26:04;25.03;;;22.63;;
4313;SDS011;2170;48.794;9.182;2023-05-23T09:28:37;24.63;;;22.27;;
4313;SDS011;2170;48.794;9.182;2023-05-23T09:31:05;24.20;;;21.90;;
4313;SDS011;2170;48.794;9.182;2023-05-23T09:33:38;24.10;;;21.83;;
4313;SDS011;2170;48.794;9.182;2023-05-23T09:36:07;22.30;;;19.63;;
4313;SDS011;2170;48.794;9.182;2023-05-23T09:38:41;22.90;;;20.70;;
4313;SDS011;2170;48.794;9.182;2023-05-23T09:41:23;23.13;;;20.73;;
4313;SDS011;2170;48.794;9.182;2023-05-23T09:44:07;20.37;;;18.37;;
4313;SDS011;2170;48.794;9.182;2023-05-23T09:46:42;22.87;;;20.53;;
4313;SDS011;2170;48.794;9.182;2023-05-23T09:49:18;22.40;;;20.30;;
4313;SDS011;2170;48.794;9.182;2023-05-23T09:51:57;20.80;;;18.80;;
4313;SDS011;2170;48.794;9.182;2023-05-23T09:54:35;21.47;;;19.50;;
4313;SDS011;2170;48.794;9.182;2023-05-23T10:00:24;19.90;;;18.20;;
4313;SDS011;2170;48.794;9.182;2023-05-23T10:03:16;19.87;;;18.03;;
4313;SDS011;2170;48.794;9.182;2023-05-23T10:05:56;19.03;;;17.33;;
4313;SDS011;2170;48.794;9.182;2023-05-23T10:08:42;18.47;;;16.87;;
4313;SDS011;2170;48.794;9.182;2023-05-23T10:14:09;17.27;;;15.77;;
4313;SDS011;2170;48.794;9.182;2023-05-23T10:16:58;18.63;;;16.80;;
4313;SDS011;2170;48.794;9.182;2023-05-23T10:19:42;18.90;;;17.23;;
4313;SDS011;2170;48.794;9.182;2023-05-23T10:25:22;17.40;;;15.70;;
4313;SDS011;2170;48.794;9.182;2023-05-23T10:28:03;16.03;;;14.70;;
4313;SDS011;2170;48.794;9.182;2023-05-23T10:30:42;15.70;;;14.30;;
4313;SDS011;2170;48.794;9.182;2023-05-23T10:33:14;15.30;;;14.10;;
4313;SDS011;2170;48.794;9.182;2023-05-23T10:35:52;16.97;;;15.43;;
4313;SDS011;2170;48.794;9.182;2023-05-23T10:38:33;15.80;;;14.40;;
4313;SDS011;2170;48.794;9.182;2023-05-23T10:41:08;15.10;;;13.80;;
4313;SDS011;2170;48.794;9.182;2023-05-23T10:43:56;15.67;;;14.37;;
4313;SDS011;2170;48.794;9.182;2023-05-23T10:47:00;15.00;;;13.60;;
4313;SDS011;2170;48.794;9.182;2023-05-23T10:49:44;14.87;;;13.57;;
4313;SDS011;2170;48.794;9.182;2023-05-23T10:52:24;13.73;;;12.63;;
4313;SDS011;2170;48.794;9.182;2023-05-23T10:55:25;14.53;;;13.30;;
4313;SDS011;2170;48.794;9.182;2023-05-23T11:16:01;12.97;;;11.87;;
4313;SDS011;2170;48.794;9.182;2023-05-23T11:19:23;12.53;;;11.37;;
4313;SDS011;2170;48.794;9.182;2023-05-23T11:22:01;13.60;;;12.50;;
4313;SDS011;2170;48.794;9.182;2023-05-23T11:24:56;11.50;;;10.60;;
4313;SDS011;2170;48.794;9.182;2023-05-23T11:27:31;13.27;;;11.87;;
4313;SDS011;2170;48.794;9.182;2023-05-23T11:30:06;12.83;;;11.77;;
4313;SDS011;2170;48.794;9.182;2023-05-23T11:32:40;11.13;;;10.27;;
4313;SDS011;2170;48.794;9.182;2023-05-23T11:35:09;11.70;;;10.70;;
4313;SDS011;2170;48.794;9.182;2023-05-23T11:37:40;12.57;;;11.63;;
4313;SDS011;2170;48.794;9.182;2023-05-23T11:40:25;13.40;;;12.30;;
4313;SDS011;2170;48.794;9.182;2023-05-23T11:43:12;14.97;;;13.77;;
4313;SDS011;2170;48.794;9.182;2023-05-23T11:46:06;16.77;;;13.87;;
4313;SDS011;2170;48.794;9.182;2023-05-23T11:49:08;15.00;;;13.70;;
4313;SDS011;2170;48.794;9.182;2023-05-23T11:51:46;15.03;;;13.63;;
4313;SDS011;2170;48.794;9.182;2023-05-23T11:54:35;13.57;;;12.57;;
4313;SDS011;2170;48.794;9.182;2023-05-23T11:57:04;14.13;;;13.07;;
4313;SDS011;2170;48.794;9.182;2023-05-23T11:59:39;13.77;;;12.57;;
4313;SDS011;2170;48.794;9.182;2023-05-23T12:02:21;13.87;;;12.67;;
4313;SDS011;2170;48.794;9.182;2023-05-23T12:05:05;13.40;;;12.07;;
4313;SDS011;2170;48.794;9.182;2023-05-23T12:07:39;13.37;;;11.97;;
4313;SDS011;2170;48.794;9.182;2023-05-23T12:10:09;14.43;;;13.00;;
4313;SDS011;2170;48.794;9.182;2023-05-23T12:12:42;13.53;;;12.47;;
4313;SDS011;2170;48.794;9.182;2023-05-23T12:15:15;13.40;;;12.30;;
4313;SDS011;2170;48.794;9.182;2023-05-23T12:17:55;12.47;;;11.53;;
4313;SDS011;2170;48.794;9.182;2023-05-23T12:20:51;17.10;;;15.70;;
4313;SDS011;2170;48.794;9.182;2023-05-23T12:23:25;11.27;;;10.37;;
4313;SDS011;2170;48.794;9.182;2023-05-23T12:26:03;11.20;;;10.10;;
4313;SDS011;2170;48.794;9.182;2023-05-23T12:31:25;11.07;;;9.97;;
4313;SDS011;2170;48.794;9.182;2023-05-23T12:33:54;11.00;;;10.20;;
4313;SDS011;2170;48.794;9.182;2023-05-23T12:36:26;10.73;;;9.93;;
4313;SDS011;2170;48.794;9.182;2023-05-23T12:39:00;10.63;;;9.70;;
4313;SDS011;2170;48.794;9.182;2023-05-23T12:41:28;10.10;;;9.30;;
4313;SDS011;2170;48.794;9.182;2023-05-23T12:43:59;10.83;;;9.93;;
4313;SDS011;2170;48.794;9.182;2023-05-23T12:46:27;8.90;;;8.20;;
4313;SDS011;2170;48.794;9.182;2023-05-23T12:48:58;10.20;;;9.30;;
4313;SDS011;2170;48.794;9.182;2023-05-23T12:51:31;9.40;;;8.70;;
4313;SDS011;2170;48.794;9.182;2023-05-23T12:54:08;10.30;;;9.33;;
4313;SDS011;2170;48.794;9.182;2023-05-23T12:56:41;9.90;;;9.00;;
4313;SDS011;2170;48.794;9.182;2023-05-23T12:59:30;9.73;;;8.87;;
4313;SDS011;2170;48.794;9.182;2023-05-23T13:02:08;7.30;;;6.80;;
4313;SDS011;2170;48.794;9.182;2023-05-23T13:04:41;9.67;;;8.87;;
4313;SDS011;2170;48.794;9.182;2023-05-23T13:07:12;9.47;;;8.60;;
4313;SDS011;2170;48.794;9.182;2023-05-23T13:09:40;8.00;;;7.40;;
4313;SDS011;2170;48.794;9.182;2023-05-23T13:12:08;8.33;;;7.73;;
4313;SDS011;2170;48.794;9.182;2023-05-23T13:14:37;9.03;;;8.37;;
4313;SDS011;2170;48.794;9.182;2023-05-23T13:17:07;8.80;;;8.10;;
4313;SDS011;2170;48.794;9.182;2023-05-23T13:19:35;8.03;;;7.43;;
4313;SDS011;2170;48.794;9.182;2023-05-23T13:22:03;8.20;;;7.60;;
4313;SDS011;2170;48.794;9.182;2023-05-23T13:24:36;6.77;;;6.37;;
4313;SDS011;2170;48.794;9.182;2023-05-23T13:27:04;7.03;;;6.47;;
4313;SDS011;2170;48.794;9.182;2023-05-23T13:29:33;7.57;;;6.87;;
4313;SDS011;2170;48.794;9.182;2023-05-23T13:32:04;8.10;;;7.50;;
4313;SDS011;2170;48.794;9.182;2023-05-23T13:34:32;7.53;;;6.73;;
4313;SDS011;2170;48.794;9.182;2023-05-23T13:37:01;7.30;;;6.70;;
4313;SDS011;2170;48.794;9.182;2023-05-23T13:39:30;7.80;;;7.20;;
4313;SDS011;2170;48.794;9.182;2023-05-23T13:42:00;6.50;;;6.10;;
4313;SDS011;2170;48.794;9.182;2023-05-23T13:44:28;6.87;;;6.27;;
4313;SDS011;2170;48.794;9.182;2023-05-23T13:46:56;7.80;;;7.10;;
4313;SDS011;2170;48.794;9.182;2023-05-23T13:49:24;7.30;;;6.80;;
4313;SDS011;2170;48.794;9.182;2023-05-23T13:51:52;6.30;;;5.80;;
4313;SDS011;2170;48.794;9.182;2023-05-23T13:54:20;6.27;;;5.87;;
4313;SDS011;2170;48.794;9.182;2023-05-23T13:56:47;7.40;;;6.80;;
4313;SDS011;2170;48.794;9.182;2023-05-23T13:59:17;7.23;;;6.70;;
4313;SDS011;2170;48.794;9.182;2023-05-23T14:01:45;7.67;;;7.07;;
4313;SDS011;2170;48.794;9.182;2023-05-23T14:04:13;7.30;;;6.70;;
4313;SDS011;2170;48.794;9.182;2023-05-23T14:06:41;6.07;;;5.67;;
4313;SDS011;2170;48.794;9.182;2023-05-23T14:09:09;6.63;;;6.13;;
4313;SDS011;2170;48.794;9.182;2023-05-23T14:11:37;9.03;;;7.00;;
4313;SDS011;2170;48.794;9.182;2023-05-23T14:14:05;7.00;;;6.50;;
4313;SDS011;2170;48.794;9.182;2023-05-23T14:16:34;6.13;;;5.73;;
4313;SDS011;2170;48.794;9.182;2023-05-23T14:19:03;7.30;;;6.80;;
4313;SDS011;2170;48.794;9.182;2023-05-23T14:21:39;7.57;;;6.97;;
4313;SDS011;2170;48.794;9.182;2023-05-23T14:24:17;5.63;;;5.23;;
4313;SDS011;2170;48.794;9.182;2023-05-23T14:26:55;6.90;;;6.40;;
4313;SDS011;2170;48.794;9.182;2023-05-23T14:29:23;7.20;;;6.70;;
4313;SDS011;2170;48.794;9.182;2023-05-23T14:32:02;7.33;;;6.83;;
4313;SDS011;2170;48.794;9.182;2023-05-23T14:34:34;7.27;;;6.67;;
4313;SDS011;2170;48.794;9.182;2023-05-23T14:37:05;8.10;;;7.00;;
4313;SDS011;2170;48.794;9.182;2023-05-23T14:39:36;6.30;;;5.90;;
4313;SDS011;2170;48.794;9.182;2023-05-23T14:42:05;6.97;;;6.30;;
4313;SDS011;2170;48.794;9.182;2023-05-23T14:44:49;6.20;;;5.70;;
4313;SDS011;2170;48.794;9.182;2023-05-23T14:47:37;6.90;;;6.40;;
4313;SDS011;2170;48.794;9.182;2023-05-23T14:50:56;6.67;;;6.10;;
4313;SDS011;2170;48.794;9.182;2023-05-23T14:53:23;7.70;;;7.10;;
4313;SDS011;2170;48.794;9.182;2023-05-23T14:55:58;6.50;;;6.00;;
4313;SDS011;2170;48.794;9.182;2023-05-23T14:58:32;6.00;;;5.50;;
4313;SDS011;2170;48.794;9.182;2023-05-23T15:01:01;6.70;;;6.20;;
4313;SDS011;2170;48.794;9.182;2023-05-23T15:03:32;8.67;;;6.93;;
4313;SDS011;2170;48.794;9.182;2023-05-23T15:06:01;6.53;;;6.13;;
4313;SDS011;2170;48.794;9.182;2023-05-23T15:08:30;6.07;;;5.60;;
4313;SDS011;2170;48.794;9.182;2023-05-23T15:10:59;6.70;;;6.20;;
4313;SDS011;2170;48.794;9.182;2023-05-23T15:13:27;6.07;;;5.67;;
4313;SDS011;2170;48.794;9.182;2023-05-23T15:15:56;6.80;;;6.30;;
4313;SDS011;2170;48.794;9.182;2023-05-23T15:18:24;6.43;;;5.97;;
4313;SDS011;2170;48.794;9.182;2023-05-23T15:21:09;5.77;;;5.27;;
4313;SDS011;2170;48.794;9.182;2023-05-23T15:23:40;6.03;;;5.43;;
4313;SDS011;2170;48.794;9.182;2023-05-23T15:26:09;6.13;;;5.50;;
4313;SDS011;2170;48.794;9.182;2023-05-23T15:28:37;5.90;;;5.40;;
4313;SDS011;2170;48.794;9.182;2023-05-23T15:31:05;5.40;;;5.00;;
4313;SDS011;2170;48.794;9.182;2023-05-23T15:33:36;5.50;;;4.67;;
4313;SDS011;2170;48.794;9.182;2023-05-23T15:36:09;5.10;;;4.60;;
4313;SDS011;2170;48.794;9.182;2023-05-23T15:38:37;5.73;;;4.70;;
4313;SDS011;2170;48.794;9.182;2023-05-23T15:41:06;6.07;;;5.67;;
4313;SDS011;2170;48.794;9.182;2023-05-23T15:43:35;6.60;;;6.20;;
4313;SDS011;2170;48.794;9.182;2023-05-23T15:46:03;7.13;;;6.40;;
4313;SDS011;2170;48.794;9.182;2023-05-23T15:48:32;7.37;;;6.40;;
4313;SDS011;2170;48.794;9.182;2023-05-23T15:51:00;8.50;;;7.00;;
4313;SDS011;2170;48.794;9.182;2023-05-23T15:53:33;6.97;;;6.30;;
4313;SDS011;2170;48.794;9.182;2023-05-23T15:56:05;6.20;;;5.80;;
4313;SDS011;2170;48.794;9.182;2023-05-23T15:58:54;5.83;;;5.43;;
4313;SDS011;2170;48.794;9.182;2023-05-23T16:04:21;5.93;;;5.53;;
4313;SDS011;2170;48.794;9.182;2023-05-23T16:07:08;5.90;;;5.50;;
4313;SDS011;2170;48.794;9.182;2023-05-23T16:09:38;12.17;;;6.47;;
4313;SDS011;2170;48.794;9.182;2023-05-23T16:12:07;6.80;;;6.33;;
4313;SDS011;2170;48.794;9.182;2023-05-23T16:14:40;7.67;;;7.17;;
4313;SDS011;2170;48.794;9.182;2023-05-23T16:17:16;7.53;;;6.93;;
4313;SDS011;2170;48.794;9.182;2023-05-23T16:20:13;7.93;;;7.33;;
4313;SDS011;2170;48.794;9.182;2023-05-23T16:22:58;9.20;;;8.50;;
4313;SDS011;2170;48.794;9.182;2023-05-23T16:28:26;10.27;;;9.37;;
4313;SDS011;2170;48.794;9.182;2023-05-23T16:30:56;9.40;;;8.70;;
4313;SDS011;2170;48.794;9.182;2023-05-23T16:33:25;8.30;;;7.70;;
4313;SDS011;2170;48.794;9.182;2023-05-23T16:35:53;7.80;;;7.10;;
4313;SDS011;2170;48.794;9.182;2023-05-23T16:38:24;8.13;;;7.43;;
4313;SDS011;2170;48.794;9.182;2023-05-23T16:40:53;8.57;;;7.77;;
4313;SDS011;2170;48.794;9.182;2023-05-23T16:43:21;9.60;;;8.80;;
4313;SDS011;2170;48.794;9.182;2023-05-23T16:45:50;10.53;;;9.67;;
4313;SDS011;2170;48.794;9.182;2023-05-23T16:48:19;11.00;;;10.20;;
4313;SDS011;2170;48.794;9.182;2023-05-23T16:50:47;10.07;;;9.20;;
4313;SDS011;2170;48.794;9.182;2023-05-23T16:53:15;10.37;;;9.67;;
4313;SDS011;2170;48.794;9.182;2023-05-23T16:55:48;10.57;;;9.67;;